• Join FlightAware (Why Join?)
  • Login
  • US Flag 
01:14AM EST


 

Airport Tracker/Info


-or-


 

Live Flight TrackerFlight Track Log ✈ UAL252 ✈ 14-Jun-2013 ✈ KIAH - KSMF

Flight Track Log - Related Links

Times and Time Zones

All times are in EDT time to prevent confusion due to time zone crossing. See the UAL252 flight status page for this flight to view local times or setup timezone preferences in your user account.

Time Position Orientation Groundspeed Altitude Reporting Facility
EDT Latitude Longitude Course Direction KTS MPH feet Rate Location/Type
10:29PM 29.9556 -95.3444 276° West 166 191 1,000  Level Houston Center
10:30PM 29.9331 -95.3736 228° Southwest 195 224 2,000 1,500 Climbing Houston Center
10:31PM 29.9497 -95.4414 286° West 249 287 3,600 2,100 Climbing Houston Center
10:32PM 29.9689 -95.5381 283° West 285 328 6,300 2,340 Climbing Houston Center
10:33PM 29.9861 -95.6372 281° West 325 374 8,600 2,160 Climbing Houston Center
10:34PM 30.0738 -96.1278 276° West  Level FlightAware Approximate
10:34PM 30.0083 -95.7425 284° West 321 369 10,900  Level Houston Center
10:35PM 30.0286 -95.8556 282° West 360 414 12,300 1,320 Climbing Houston Center
10:36PM 30.0514 -95.9792 282° West 393 452 13,700 1,320 Climbing Houston Center
10:37PM 30.0728 -96.1058 281° West 412 474 15,100 1,620 Climbing Houston Center
10:38PM 30.0978 -96.2406 282° West 427 491 17,100 1,560 Climbing Houston Center
10:39PM 30.1189 -96.3764 280° West 431 496 18,300 1,200 Climbing Houston Center
10:40PM 30.1414 -96.5181 280° West 443 510 19,600 1,080 Climbing Houston Center
10:41PM 30.1631 -96.6656 280° West 458 527 20,600 900 Climbing Houston Center
10:42PM 30.1983 -96.8142 285° West 471 542 21,500 1,080 Climbing Houston Center
10:43PM 30.2333 -96.9653 285° West 479 551 22,800 840 Climbing Houston Center
10:44PM 30.2689 -97.1164 285° West 480 552 23,300 720 Climbing Houston Center
10:45PM 30.3119 -97.2972 285° West 490 564 24,300 660 Climbing Houston Center
10:46PM 30.3481 -97.4531 285° West 496 571 24,700 660 Climbing Houston Center
10:47PM 30.3833 -97.6083 285° West 491 565 25,700 900 Climbing Houston Center
10:48PM 30.4192 -97.7619 285° West 487 560 26,600 660 Climbing Houston Center
10:49PM 30.4542 -97.9128 285° West 480 552 27,100 720 Climbing Houston Center
10:50PM 30.4886 -98.0650 285° West 482 555 28,100 780 Climbing Houston Center
10:51PM 30.5231 -98.2172 285° West 483 556 28,800 780 Climbing Houston Center
10:52PM 30.5572 -98.3700 285° West 483 556 29,800 960 Climbing Houston Center
10:53PM 30.5914 -98.5197 285° West 477 549 30,800 1,020 Climbing Houston Center
10:54PM 30.6250 -98.6694 285° West 474 545 31,900 1,500 Climbing Houston Center
10:55PM 30.6564 -98.8122 284° West 458 527 33,900 1,020 Climbing Houston Center
10:56PM 30.6903 -98.9486 286° West 438 504 34,000  Climbing Houston Center
10:57PM 30.7569 -99.0806 300° West 462 532 34,000 -60 Level Houston Center
10:58PM 30.8219 -99.2139 300° West 463 533 33,900 -60 Descending Houston Center
10:59PM 30.8839 -99.3436 299° West 462 532 33,900  Level Houston Center
11:00PM 30.9564 -99.4628 305° West 457 526 33,900  Level Houston Center
11:01PM 31.0756 -99.5158 339° North 467 537 33,900 120 Level Houston Center
11:02PM 31.2072 -99.5236 357° North 479 551 34,200 480 Climbing Houston Center
11:03PM 31.3161 -99.5978 330° Northwest 464 534 34,900 720 Climbing Houston Center
11:04PM 31.3822 -99.7236 302° West 468 539 35,700 480 Climbing Houston Center
11:05PM 31.4314 -99.8536 294° West 450 518 35,900 60 Climbing Houston Center
11:06PM 31.4828 -99.9794 296° West 445 512 35,900  Level Houston Center
11:07PM 31.5439 -100.1406 294° West 463 533 35,900  Level Houston Center
11:08PM 31.5961 -100.2722 295° West 466 536 35,900  Level Houston Center
11:09PM 31.6469 -100.4017 295° West 454 522 35,900  Level Houston Center
11:10PM 31.6992 -100.5333 295° West 448 516 35,900  Level Houston Center
11:11PM 31.7497 -100.6664 294° West 462 532 36,000  Climbing Houston Center
11:12PM 31.8061 -100.8061 295° West 449 517 35,900 -60 Descending Houston Center
11:13PM 31.8558 -100.9356 294° West 439 505 35,900  Level Houston Center
11:14PM 31.9047 -101.0658 294° West 438 504 35,900  Level Houston Center
11:16PM 31.9578 -101.2011 295° West 445 512 35,900  Level Fort Worth Center
11:17PM 32.0081 -101.3331 294° West 445 512 35,900  Level Fort Worth Center
11:18PM 32.0561 -101.4650 293° West 445 512 35,900  Level Fort Worth Center
11:19PM 32.1042 -101.5922 294° West 445 512 35,900  Level Fort Worth Center
11:20PM 32.1519 -101.7219 294° West 445 512 35,900  Level Fort Worth Center
11:21PM 32.2011 -101.8692 292° West 440 506 36,000  Climbing Fort Worth Center
11:22PM 32.2508 -101.9969 295° West 440 506 35,900 240 Descending Fort Worth Center
11:23PM 32.2981 -102.1294 293° West 440 506 36,500 600 Climbing Fort Worth Center
11:24PM 32.3433 -102.2547 293° West 434 499 37,200 480 Climbing Fort Worth Center
11:25PM 32.3903 -102.3878 293° West 429 494 37,500 300 Climbing Fort Worth Center
11:26PM 32.4436 -102.5136 297° West 429 494 37,900 240 Climbing Fort Worth Center
11:27PM 32.4881 -102.6492 291° West 440 506 38,000  Climbing Fort Worth Center
11:28PM 32.5369 -102.7775 294° West 433 498 38,000 -60 Level Fort Worth Center
11:29PM 32.5711 -102.9078 287° West 427 491 37,900  Descending Fort Worth Center
11:30PM 32.6069 -103.0406 288° West 422 486 38,000  Climbing Fort Worth Center
11:32PM 32.7833 -103.2633 313° West 436 502 38,000  Level Albuquerque Center
11:33PM 32.8808 -103.3497 323° Northwest 436 502 38,000  Level Albuquerque Center
11:34PM 32.9761 -103.4397 322° Northwest 436 502 38,000  Level Albuquerque Center
11:35PM 33.0747 -103.5258 324° Northwest 439 505 38,000  Level Albuquerque Center
11:36PM 33.1794 -103.6050 328° Northwest 441 507 38,000 -60 Level Albuquerque Center
11:37PM 33.2967 -103.6925 328° Northwest 449 517 37,900  Descending Albuquerque Center
11:38PM 33.4150 -103.7797 328° Northwest 461 531 38,000  Climbing Albuquerque Center
11:39PM 33.5203 -103.8619 327° Northwest 457 526 38,000  Level Albuquerque Center
11:40PM 33.6264 -103.9597 323° Northwest 450 518 38,000  Level Albuquerque Center
11:41PM 33.6844 -104.0842 299° West 433 498 38,000  Level Albuquerque Center
11:42PM 33.7444 -104.2078 300° West 432 497 38,000  Level Albuquerque Center
11:43PM 33.8261 -104.3306 309° West 439 505 38,000  Level Albuquerque Center
11:44PM 33.9017 -104.4428 309° West 436 502 38,000 -60 Level Albuquerque Center
11:45PM 33.9792 -104.5569 309° West 440 506 37,900  Descending Albuquerque Center
11:46PM 34.0300 -104.6744 298° West 426 490 38,000  Climbing Albuquerque Center
11:47PM 34.0875 -104.8344 293° West 435 501 38,000  Level Albuquerque Center
11:48PM 34.1358 -104.9711 293° West 437 503 38,000  Level Albuquerque Center
11:49PM 34.1858 -105.1069 294° West 438 504 38,000  Level Albuquerque Center
11:50PM 34.2425 -105.2383 298° West 436 502 38,000  Level Albuquerque Center
11:51PM 34.2986 -105.3736 297° West 440 506 38,000  Level Albuquerque Center
11:52PM 34.3547 -105.5083 297° West 442 509 38,000  Level Albuquerque Center
11:53PM 34.4111 -105.6433 297° West 443 510 38,000  Level Albuquerque Center
11:54PM 34.4675 -105.7792 297° West 445 512 38,000  Level Albuquerque Center
11:55PM 34.5211 -105.9103 296° West 436 502 38,000 -60 Level Albuquerque Center
11:56PM 34.5742 -106.0408 296° West 430 495 37,900 -60 Descending Albuquerque Center
11:57PM 34.6269 -106.1722 296° West 429 494 37,900  Level Albuquerque Center
11:58PM 34.6806 -106.3022 297° West 431 496 38,000  Climbing Albuquerque Center
12:00AM 34.7333 -106.4356 296° West 435 501 38,000  Level Albuquerque Center
12:01AM 34.7886 -106.5719 296° West 435 501 38,000  Level Albuquerque Center
12:02AM 34.8500 -106.7289 296° West 435 501 38,000  Level Albuquerque Center
12:03AM 34.9019 -106.8564 296° West 439 505 38,000  Level Albuquerque Center
12:04AM 34.9519 -106.9825 296° West 433 498 38,000  Level Albuquerque Center
12:05AM 35.0117 -107.1319 296° West 437 503 38,000  Level Albuquerque Center
12:06AM 35.0647 -107.2711 295° West 440 506 38,000  Level Albuquerque Center
12:07AM 35.1169 -107.4033 296° West 434 499 38,000 -60 Level Albuquerque Center
12:08AM 35.1678 -107.5347 295° West 428 493 37,900  Descending Albuquerque Center
12:09AM 35.2181 -107.6633 296° West 434 499 38,000  Climbing Albuquerque Center
12:10AM 35.2756 -107.8111 296° West 432 497 38,000  Level Albuquerque Center
12:11AM 35.3242 -107.9389 295° West 432 497 38,000  Level Albuquerque Center
12:12AM 35.3817 -108.0847 296° West 428 493 38,000  Level Albuquerque Center
12:13AM 35.4294 -108.2114 295° West 426 490 38,000  Level Albuquerque Center
12:14AM 35.4769 -108.3369 295° West 423 487 38,000  Level Albuquerque Center
12:15AM 35.5331 -108.4825 295° West 422 486 38,000  Level Albuquerque Center
12:16AM 35.5811 -108.6081 295° West 421 484 38,000 -60 Level Albuquerque Center
12:17AM 35.6278 -108.7333 295° West 419 482 37,900  Descending Albuquerque Center
12:18AM 35.6825 -108.8800 295° West 420 483 38,000  Climbing Albuquerque Center
12:19AM 35.7292 -109.0075 294° West 424 488 38,000  Level Albuquerque Center
12:20AM 35.7764 -109.1344 295° West 423 487 38,000  Level Albuquerque Center
12:21AM 35.8319 -109.2819 295° West 421 484 38,000  Level Albuquerque Center
12:22AM 35.8792 -109.4103 294° West 425 489 38,000  Level Albuquerque Center
12:23AM 35.9256 -109.5372 294° West 424 488 38,000  Level Albuquerque Center
12:24AM 35.9631 -109.6442 293° West 424 488 38,000  Level Denver Center
12:25AM 36.0083 -109.7708 294° West 420 483 38,000  Level Denver Center
12:26AM 36.0558 -109.8981 295° West 423 487 38,000  Level Denver Center
12:27AM 36.1092 -110.0481 294° West 427 491 38,000  Level Denver Center
12:28AM 36.1439 -110.1403 295° West 425 489 38,000  Level Denver Center
12:29AM 36.2011 -110.3003 294° West 424 488 38,000  Level Denver Center
12:30AM 36.2567 -110.4606 293° West 423 487 38,000  Level Denver Center
12:31AM 36.3036 -110.5933 294° West 422 486 38,000  Level Denver Center
12:32AM 36.3519 -110.7269 294° West 423 487 38,000  Level Denver Center
12:33AM 36.3975 -110.8603 293° West 421 484 38,000  Level Denver Center
12:34AM 36.4453 -110.9936 294° West 422 486 38,000  Level Denver Center
12:35AM 36.4914 -111.1261 293° West 420 483 38,000  Level Denver Center
12:36AM 36.5389 -111.2583 294° West 420 483 38,000  Level Denver Center
12:37AM 36.5833 -111.3950 292° West 424 488 38,000  Level Denver Center
12:38AM 36.6303 -111.5281 294° West 422 486 38,000  Level Denver Center
12:39AM 36.6847 -111.6867 293° West 418 481 38,000 -60 Level Los Angeles Center
12:40AM 36.7317 -111.8192 294° West 417 480 37,900  Descending Los Angeles Center
12:41AM 36.7772 -111.9544 293° West 422 486 38,000  Climbing Los Angeles Center
12:42AM 36.8217 -112.0900 292° West 422 486 38,000  Level Los Angeles Center
12:43AM 36.8764 -112.2514 293° West 421 484 38,000 -60 Level Los Angeles Center
12:44AM 36.9450 -112.4047 299° West 428 493 37,900  Descending Los Angeles Center
12:45AM 37.0414 -112.5042 321° Northwest 446 513 38,000  Climbing Los Angeles Center
12:46AM 37.1397 -112.6031 321° Northwest 451 519 38,000  Level Los Angeles Center
12:48AM 37.2389 -112.7042 321° Northwest 456 525 38,000  Level Los Angeles Center
12:49AM 37.3367 -112.8044 321° Northwest 453 521 38,000  Level Los Angeles Center
12:50AM 37.4339 -112.9044 321° Northwest 448 516 38,000  Level Los Angeles Center
12:51AM 37.5331 -113.0081 320° Northwest 449 517 38,000  Level Los Angeles Center
12:52AM 37.6328 -113.1122 320° Northwest 455 524 38,000  Level Los Angeles Center
12:52AM 37.7108 -113.1925 321° Northwest 453 521 38,000  Level Salt Lake Center
12:53AM 37.8072 -113.2911 321° Northwest 447 514 38,000  Level Salt Lake Center
12:54AM 37.8900 -113.4056 313° West 437 503 38,000  Level Salt Lake Center
12:55AM 37.9350 -113.5419 293° West 423 487 38,000  Level Salt Lake Center
12:56AM 37.9644 -113.6833 285° West 418 481 38,000  Level Salt Lake Center
12:57AM 37.9942 -113.8258 285° West 419 482 38,000  Level Salt Lake Center
12:58AM 38.0244 -113.9653 285° West 413 475 38,000  Level Salt Lake Center
12:59AM 38.0528 -114.1056 284° West 412 474 38,000  Level Salt Lake Center
01:00AM 38.0833 -114.2464 285° West 414 476 38,000  Level Salt Lake Center
01:01AM 38.1189 -114.4144 285° West 412 474 38,000  Level Salt Lake Center
01:02AM 38.1483 -114.5528 285° West 406 467 38,000  Level Salt Lake Center
01:04AM 38.1758 -114.6914 284° West 407 468 38,000  Level Salt Lake Center
01:05AM 38.2069 -114.8306 286° West 410 472 38,000  Level Salt Lake Center
01:06AM 38.2356 -114.9703 285° West 410 472 38,000  Level Salt Lake Center
01:07AM 38.2628 -115.1103 284° West 410 472 38,000  Level Salt Lake Center
01:08AM 38.2914 -115.2500 285° West 410 472 38,000  Level Salt Lake Center
01:09AM 38.3175 -115.3872 284° West 408 470 38,000  Level Salt Lake Center
01:10AM 38.3456 -115.5258 285° West 406 467 38,000  Level Salt Lake Center
01:11AM 38.3783 -115.6936 284° West 407 468 38,000 -240 Level Salt Lake Center
01:12AM 38.4056 -115.8342 284° West 409 471 37,600 -660 Descending Salt Lake Center
01:13AM 38.4325 -115.9731 284° West 406 467 36,700 -840 Descending Salt Lake Center
01:14AM 38.4603 -116.1122 284° West 405 466 36,000 -360 Descending Salt Lake Center
01:15AM 38.4872 -116.2544 284° West 409 471 36,000  Level Salt Lake Center
01:16AM 38.5144 -116.3967 284° West 413 475 36,000  Level Salt Lake Center
01:17AM 38.5417 -116.5383 284° West 413 475 36,000  Level Salt Lake Center
01:18AM 38.5686 -116.6864 283° West 425 489 36,000  Level Salt Lake Center
01:19AM 38.5969 -116.8325 284° West 427 491 36,000  Level Salt Lake Center
01:20AM 38.6233 -116.9786 283° West 425 489 36,000  Level Salt Lake Center
01:21AM 38.6503 -117.1217 284° West 419 482 36,000 -60 Level Salt Lake Center
01:22AM 38.6825 -117.2956 283° West 421 484 35,900 -60 Descending Salt Lake Center
01:23AM 38.7086 -117.4419 283° West 423 487 35,900  Level Salt Lake Center
01:24AM 38.7353 -117.5897 283° West 428 493 36,000  Climbing Salt Lake Center
01:25AM 38.7642 -117.7508 283° West 433 498 36,000  Level Oakland Center
01:26AM 38.7953 -117.9269 283° West 423 487 36,000  Level Oakland Center
01:27AM 38.8206 -118.0744 282° West 422 486 36,000  Level Oakland Center
01:28AM 38.8456 -118.2233 282° West 425 489 36,000  Level Oakland Center
01:29AM 38.8711 -118.3728 282° West 427 491 36,000  Level Oakland Center
01:30AM 38.8969 -118.5203 283° West 423 487 36,000 -60 Level Oakland Center
01:31AM 38.9217 -118.6672 282° West 420 483 35,900 -540 Descending Oakland Center
01:32AM 38.9453 -118.8142 282° West 417 480 35,000 -960 Descending Oakland Center
01:33AM 38.9714 -118.9639 283° West 425 489 34,000 -1,020 Descending Oakland Center
01:34AM 38.9958 -119.1139 282° West 426 490 33,000 -1,020 Descending Oakland Center
01:35AM 39.0203 -119.2664 282° West 431 496 32,000 -1,020 Descending Oakland Center
01:36AM 39.0442 -119.4175 282° West 430 495 31,000 -1,020 Descending Oakland Center
01:37AM 39.0697 -119.5683 282° West 431 496 30,000 -1,020 Descending Oakland Center
01:38AM 39.0906 -119.7211 280° West 435 501 29,000 -1,260 Descending Oakland Center
01:39AM 39.0742 -119.8733 262° West 434 499 27,500 -2,040 Descending Oakland Center
01:40AM 39.0531 -120.0625 262° West 444 511 24,900 -2,340 Descending Oakland Center
01:41AM 39.0356 -120.2058 261° West 438 504 22,900 -2,100 Descending Oakland Center
01:42AM 39.0181 -120.3572 262° West 428 493 20,700 -2,220 Descending Oakland Center
01:43AM 39.0006 -120.5069 261° West 426 490 18,500 -2,220 Descending Oakland Center
01:44AM 38.9839 -120.6528 262° West 415 478 16,300 -2,160 Descending Oakland Center
01:45AM 38.9656 -120.7972 261° West 413 475 14,200 -1,860 Descending Oakland Center
01:46AM 38.9475 -120.9397 261° West 407 468 12,600 -1,620 Descending Oakland Center
01:47AM 38.9294 -121.0819 261° West 408 470 11,000 -1,500 Descending Oakland Center
01:48AM 38.9167 -121.2167 263° West 389 448 10,000 -600 Descending Northern Cal TRACON
01:49AM 38.9000 -121.3333 260° West 356 410 10,000 -900 Level Northern Cal TRACON
01:50AM 38.8667 -121.4333 247° West 291 335 8,300 -2,160 Descending Northern Cal TRACON
01:51AM 38.8333 -121.5167 243° Southwest 284 327 6,000 -2,280 Descending Northern Cal TRACON
01:52AM 38.7833 -121.6000 232° Southwest 274 315 3,800 -1,440 Descending Northern Cal TRACON
01:53AM 38.7333 -121.6333 207° Southwest 229 264 3,000 -780 Descending Northern Cal TRACON
01:54AM 38.7122 -121.6494 211° Southwest 248 285 2,800 -540 Descending Oakland Center
01:55AM 38.6594 -121.6681 195° South 207 238 2,300 -720 Descending Oakland Center
01:56AM 38.6278 -121.6292 136° Southeast 167 192 1,400 -660 Descending Oakland Center
01:56AM 38.6333 -121.6000 76° East 149 171 1,300 -180 Descending Northern Cal TRACON